Other Surface Observations
Issued by NWS Missoula, MT

Home | Current Version | Previous Version | Text Only | Print | Product List | Glossary On
Versions: 1 2 3 4 5 6 7 8 9 10 11 12 13 14 15 16 17 18 19 20 21 22 23 24 25 26 27 28 29 30 31 32 33 34 35 36 37 38 39 40 41 42 43 44 45 46 47 48 49 50
000
SXUS55 KMSO 181903
OSOMSO
MONTANA AWOS SUMMARY
NATIONAL WEATHER SERVICE MISSOULA MT
1203 PM MST FRI APR 18 2014

Montana AWOS Reports

LAUREL      |K6S8 181855Z AUTO 28006KT 25SM 11/02 A2976 RMK AO1 T01110022
ROUNDUP     |KRPX 181855Z AUTO 00000KT 25SM 09/05 A2965 RMK AO1 T00940050
MALTA       |KM75 181855Z AUTO 00000KT 40SM 12/03 A2962 RMK AO1 T01170033
SCOBEY      |K9S2 181855Z AUTO 12016G23KT 09/M01 A2967 RMK AO1 T00891005
EKALAKA     |K97M 181855Z AUTO 11017G24KT 40SM 17/01 A2966 RMK AO1 T01670006
TWIN BRIDGES|K7S1 181855Z AUTO 21022G30KT 40SM 14/M09 A2978 RMK AO1 T01391088




USA.gov is the U.S. government's official web portal to all federal, state and local government web resources and services.